sensor_id;sensor_type;location;lat;lon;timestamp;pressure;altitude;pressure_sealevel;temperature;humidity
75036;BME280;64247;51.540;5.854;2023-04-06T00:00:00;101495.38;;;-0.20;87.93
75036;BME280;64247;51.540;5.854;2023-04-06T00:02:01;101499.59;;;-0.24;88.05
75036;BME280;64247;51.540;5.854;2023-04-06T00:04:02;101497.97;;;-0.25;88.59
75036;BME280;64247;51.540;5.854;2023-04-06T00:06:04;101487.25;;;-0.30;89.02
75036;BME280;64247;51.540;5.854;2023-04-06T00:08:05;101488.31;;;-0.32;89.63
75036;BME280;64247;51.540;5.854;2023-04-06T00:10:06;101494.47;;;-0.31;89.06
75036;BME280;64247;51.540;5.854;2023-04-06T00:12:07;101485.00;;;-0.17;87.36
75036;BME280;64247;51.540;5.854;2023-04-06T00:14:08;101487.13;;;0.14;85.65
75036;BME280;64247;51.540;5.854;2023-04-06T00:16:09;101487.38;;;0.45;84.11
75036;BME280;64247;51.540;5.854;2023-04-06T00:18:09;101480.88;;;0.68;81.95
75036;BME280;64247;51.540;5.854;2023-04-06T00:20:11;101477.47;;;0.88;80.78
75036;BME280;64247;51.540;5.854;2023-04-06T00:22:12;101477.31;;;1.05;79.96
75036;BME280;64247;51.540;5.854;2023-04-06T00:24:13;101464.00;;;1.21;79.25
75036;BME280;64247;51.540;5.854;2023-04-06T00:26:13;101480.63;;;1.33;78.79
75036;BME280;64247;51.540;5.854;2023-04-06T00:28:19;101473.97;;;1.41;78.13
75036;BME280;64247;51.540;5.854;2023-04-06T00:30:25;101473.16;;;1.46;78.76
75036;BME280;64247;51.540;5.854;2023-04-06T00:32:26;101471.81;;;1.43;78.63
75036;BME280;64247;51.540;5.854;2023-04-06T00:34:28;101466.97;;;1.35;78.75
75036;BME280;64247;51.540;5.854;2023-04-06T00:36:28;101471.50;;;1.24;79.07
75036;BME280;64247;51.540;5.854;2023-04-06T00:38:30;101468.75;;;1.08;79.77
75036;BME280;64247;51.540;5.854;2023-04-06T00:40:31;101467.13;;;0.97;79.58
75036;BME280;64247;51.540;5.854;2023-04-06T00:42:33;101467.59;;;0.89;80.91
75036;BME280;64247;51.540;5.854;2023-04-06T00:44:34;101464.38;;;0.82;82.01
75036;BME280;64247;51.540;5.854;2023-04-06T00:46:34;101456.00;;;0.73;81.05
75036;BME280;64247;51.540;5.854;2023-04-06T00:48:37;101465.13;;;0.72;81.71
75036;BME280;64247;51.540;5.854;2023-04-06T00:50:37;101455.22;;;0.72;81.58
75036;BME280;64247;51.540;5.854;2023-04-06T00:52:38;101455.00;;;0.79;80.83
75036;BME280;64247;51.540;5.854;2023-04-06T00:54:41;101445.66;;;0.87;80.90
75036;BME280;64247;51.540;5.854;2023-04-06T00:56:44;101447.06;;;1.00;80.08
75036;BME280;64247;51.540;5.854;2023-04-06T00:58:45;101455.66;;;1.12;79.63
75036;BME280;64247;51.540;5.854;2023-04-06T01:00:46;101447.13;;;1.20;79.64
75036;BME280;64247;51.540;5.854;2023-04-06T01:02:52;101439.44;;;1.29;79.12
75036;BME280;64247;51.540;5.854;2023-04-06T01:04:56;101445.56;;;1.35;78.89
75036;BME280;64247;51.540;5.854;2023-04-06T01:07:06;101434.09;;;1.39;78.67
75036;BME280;64247;51.540;5.854;2023-04-06T01:09:16;101434.13;;;1.45;77.77
75036;BME280;64247;51.540;5.854;2023-04-06T01:11:17;101427.16;;;1.49;77.18
75036;BME280;64247;51.540;5.854;2023-04-06T01:13:19;101436.28;;;1.53;78.00
75036;BME280;64247;51.540;5.854;2023-04-06T01:15:47;101429.84;;;1.49;77.43
75036;BME280;64247;51.540;5.854;2023-04-06T01:17:54;101435.97;;;1.39;77.71
75036;BME280;64247;51.540;5.854;2023-04-06T01:19:54;101429.25;;;1.31;77.92
75036;BME280;64247;51.540;5.854;2023-04-06T01:22:01;101426.03;;;1.24;78.41
75036;BME280;64247;51.540;5.854;2023-04-06T01:24:25;101429.75;;;1.13;79.31
75036;BME280;64247;51.540;5.854;2023-04-06T01:26:38;101421.94;;;1.01;79.60
75036;BME280;64247;51.540;5.854;2023-04-06T01:28:42;101423.22;;;0.88;80.15
75036;BME280;64247;51.540;5.854;2023-04-06T01:30:56;101421.81;;;0.75;80.57
75036;BME280;64247;51.540;5.854;2023-04-06T01:33:15;101417.75;;;0.62;81.75
75036;BME280;64247;51.540;5.854;2023-04-06T01:35:48;101416.66;;;0.58;82.26
75036;BME280;64247;51.540;5.854;2023-04-06T01:37:53;101424.13;;;0.56;82.39
75036;BME280;64247;51.540;5.854;2023-04-06T01:40:00;101420.34;;;0.46;82.69
75036;BME280;64247;51.540;5.854;2023-04-06T01:42:14;101419.25;;;0.42;83.24
75036;BME280;64247;51.540;5.854;2023-04-06T01:44:17;101410.16;;;0.38;82.74
75036;BME280;64247;51.540;5.854;2023-04-06T01:46:23;101409.31;;;0.33;83.03
75036;BME280;64247;51.540;5.854;2023-04-06T01:48:26;101399.69;;;0.31;83.25
75036;BME280;64247;51.540;5.854;2023-04-06T01:50:27;101400.75;;;0.30;83.70
75036;BME280;64247;51.540;5.854;2023-04-06T01:52:29;101402.63;;;0.30;83.71
75036;BME280;64247;51.540;5.854;2023-04-06T01:54:29;101399.41;;;0.28;84.61
75036;BME280;64247;51.540;5.854;2023-04-06T01:56:43;101398.34;;;0.29;83.78
75036;BME280;64247;51.540;5.854;2023-04-06T01:59:01;101390.06;;;0.30;84.44
75036;BME280;64247;51.540;5.854;2023-04-06T02:01:09;101389.78;;;0.32;83.83
75036;BME280;64247;51.540;5.854;2023-04-06T02:03:22;101380.47;;;0.35;82.82
75036;BME280;64247;51.540;5.854;2023-04-06T02:05:31;101381.31;;;0.40;83.74
75036;BME280;64247;51.540;5.854;2023-04-06T02:07:42;101383.44;;;0.38;83.41
75036;BME280;64247;51.540;5.854;2023-04-06T02:09:44;101383.44;;;0.38;84.08
75036;BME280;64247;51.540;5.854;2023-04-06T02:11:54;101378.09;;;0.38;85.16
75036;BME280;64247;51.540;5.854;2023-04-06T02:13:56;101374.06;;;0.36;85.20
75036;BME280;64247;51.540;5.854;2023-04-06T02:16:02;101386.06;;;0.33;85.80
75036;BME280;64247;51.540;5.854;2023-04-06T02:18:03;101373.25;;;0.30;86.19
75036;BME280;64247;51.540;5.854;2023-04-06T02:20:05;101370.59;;;0.35;84.94
75036;BME280;64247;51.540;5.854;2023-04-06T02:22:07;101371.19;;;0.47;84.19
75036;BME280;64247;51.540;5.854;2023-04-06T02:24:08;101365.63;;;0.59;83.20
75036;BME280;64247;51.540;5.854;2023-04-06T02:26:09;101368.38;;;0.75;83.57
75036;BME280;64247;51.540;5.854;2023-04-06T02:28:10;101370.56;;;0.88;82.91
75036;BME280;64247;51.540;5.854;2023-04-06T02:30:11;101365.81;;;1.01;82.04
75036;BME280;64247;51.540;5.854;2023-04-06T02:32:12;101361.00;;;1.13;81.19
75036;BME280;64247;51.540;5.854;2023-04-06T02:34:13;101363.44;;;1.20;80.83
75036;BME280;64247;51.540;5.854;2023-04-06T02:36:21;101361.03;;;1.29;80.11
75036;BME280;64247;51.540;5.854;2023-04-06T02:38:22;101354.38;;;1.36;80.14
75036;BME280;64247;51.540;5.854;2023-04-06T02:40:23;101353.84;;;1.45;79.98
75036;BME280;64247;51.540;5.854;2023-04-06T02:42:23;101352.00;;;1.55;79.55
75036;BME280;64247;51.540;5.854;2023-04-06T02:44:26;101345.03;;;1.65;79.54
75036;BME280;64247;51.540;5.854;2023-04-06T02:46:27;101349.03;;;1.72;79.27
75036;BME280;64247;51.540;5.854;2023-04-06T02:48:28;101351.47;;;1.79;78.52
75036;BME280;64247;51.540;5.854;2023-04-06T02:50:28;101349.56;;;1.80;78.43
75036;BME280;64247;51.540;5.854;2023-04-06T02:52:34;101341.25;;;1.81;78.90
75036;BME280;64247;51.540;5.854;2023-04-06T02:54:35;101341.81;;;1.83;78.14
75036;BME280;64247;51.540;5.854;2023-04-06T02:56:37;101346.34;;;1.88;78.94
75036;BME280;64247;51.540;5.854;2023-04-06T02:58:38;101334.56;;;1.94;78.63
75036;BME280;64247;51.540;5.854;2023-04-06T03:00:39;101337.22;;;1.99;78.13
75036;BME280;64247;51.540;5.854;2023-04-06T03:02:41;101334.56;;;2.04;77.98
75036;BME280;64247;51.540;5.854;2023-04-06T03:04:47;101336.44;;;2.09;77.92
75036;BME280;64247;51.540;5.854;2023-04-06T03:07:06;101335.88;;;2.12;77.80
75036;BME280;64247;51.540;5.854;2023-04-06T03:09:10;101337.44;;;2.18;77.44
75036;BME280;64247;51.540;5.854;2023-04-06T03:11:14;101334.78;;;2.24;77.70
75036;BME280;64247;51.540;5.854;2023-04-06T03:13:17;101328.59;;;2.28;77.70
75036;BME280;64247;51.540;5.854;2023-04-06T03:15:21;101334.22;;;2.32;77.79
75036;BME280;64247;51.540;5.854;2023-04-06T03:17:27;101336.09;;;2.36;77.62
75036;BME280;64247;51.540;5.854;2023-04-06T03:19:31;101328.56;;;2.38;77.58
75036;BME280;64247;51.540;5.854;2023-04-06T03:21:34;101329.91;;;2.41;77.83
75036;BME280;64247;51.540;5.854;2023-04-06T03:23:35;101337.09;;;2.46;77.35
75036;BME280;64247;51.540;5.854;2023-04-06T03:25:36;101323.72;;;2.46;77.23
75036;BME280;64247;51.540;5.854;2023-04-06T03:27:40;101331.50;;;2.47;77.78
75036;BME280;64247;51.540;5.854;2023-04-06T03:29:45;101331.22;;;2.49;77.44
75036;BME280;64247;51.540;5.854;2023-04-06T03:31:50;101327.47;;;2.50;77.86
75036;BME280;64247;51.540;5.854;2023-04-06T03:33:59;101320.75;;;2.52;77.24
75036;BME280;64247;51.540;5.854;2023-04-06T03:36:05;101316.72;;;2.55;76.86
75036;BME280;64247;51.540;5.854;2023-04-06T03:38:11;101320.72;;;2.58;77.09
75036;BME280;64247;51.540;5.854;2023-04-06T03:40:12;101318.56;;;2.60;76.77
75036;BME280;64247;51.540;5.854;2023-04-06T03:42:13;101320.44;;;2.64;76.79
75036;BME280;64247;51.540;5.854;2023-04-06T03:44:21;101313.47;;;2.63;76.93
75036;BME280;64247;51.540;5.854;2023-04-06T03:46:22;101312.66;;;2.63;76.79
75036;BME280;64247;51.540;5.854;2023-04-06T03:48:26;101310.50;;;2.65;76.78
75036;BME280;64247;51.540;5.854;2023-04-06T03:50:27;101315.59;;;2.66;76.97
75036;BME280;64247;51.540;5.854;2023-04-06T03:52:28;101303.81;;;2.67;77.26
75036;BME280;64247;51.540;5.854;2023-04-06T03:54:29;101312.09;;;2.66;77.31
75036;BME280;64247;51.540;5.854;2023-04-06T03:56:29;101315.84;;;2.65;77.15
75036;BME280;64247;51.540;5.854;2023-04-06T03:58:30;101302.19;;;2.61;77.18
75036;BME280;64247;51.540;5.854;2023-04-06T04:00:31;101297.94;;;2.60;77.27
75036;BME280;64247;51.540;5.854;2023-04-06T04:02:33;101300.63;;;2.60;77.73
75036;BME280;64247;51.540;5.854;2023-04-06T04:04:34;101308.66;;;2.60;78.13
75036;BME280;64247;51.540;5.854;2023-04-06T04:06:36;101304.09;;;2.61;77.65
75036;BME280;64247;51.540;5.854;2023-04-06T04:08:37;101300.63;;;2.60;77.85
75036;BME280;64247;51.540;5.854;2023-04-06T04:10:38;101313.22;;;2.60;78.44
75036;BME280;64247;51.540;5.854;2023-04-06T04:12:39;101306.25;;;2.59;78.52
75036;BME280;64247;51.540;5.854;2023-04-06T04:14:39;101309.75;;;2.59;78.51
75036;BME280;64247;51.540;5.854;2023-04-06T04:16:40;101311.34;;;2.60;79.01
75036;BME280;64247;51.540;5.854;2023-04-06T04:18:42;101315.09;;;2.59;78.54
75036;BME280;64247;51.540;5.854;2023-04-06T04:20:44;101316.16;;;2.58;79.15
75036;BME280;64247;51.540;5.854;2023-04-06T04:22:46;101310.81;;;2.58;79.31
75036;BME280;64247;51.540;5.854;2023-04-06T04:24:47;101303.84;;;2.57;78.93
75036;BME280;64247;51.540;5.854;2023-04-06T04:26:48;101312.69;;;2.58;79.04
75036;BME280;64247;51.540;5.854;2023-04-06T04:28:50;101319.63;;;2.59;79.82
75036;BME280;64247;51.540;5.854;2023-04-06T04:30:51;101306.81;;;2.56;79.93
75036;BME280;64247;51.540;5.854;2023-04-06T04:32:51;101309.50;;;2.56;79.65
75036;BME280;64247;51.540;5.854;2023-04-06T04:34:55;101316.47;;;2.57;79.89
75036;BME280;64247;51.540;5.854;2023-04-06T04:37:07;101315.91;;;2.55;80.33
75036;BME280;64247;51.540;5.854;2023-04-06T04:39:19;101316.47;;;2.51;80.29
75036;BME280;64247;51.540;5.854;2023-04-06T04:41:26;101311.09;;;2.51;80.59
75036;BME280;64247;51.540;5.854;2023-04-06T04:43:27;101321.81;;;2.51;81.06
75036;BME280;64247;51.540;5.854;2023-04-06T04:45:28;101312.44;;;2.49;81.44
75036;BME280;64247;51.540;5.854;2023-04-06T04:47:31;101302.03;;;2.47;81.10
75036;BME280;64247;51.540;5.854;2023-04-06T04:49:32;101311.91;;;2.47;81.03
75036;BME280;64247;51.540;5.854;2023-04-06T04:51:34;101310.84;;;2.48;81.62
75036;BME280;64247;51.540;5.854;2023-04-06T04:53:55;101312.72;;;2.47;81.85
75036;BME280;64247;51.540;5.854;2023-04-06T04:56:01;101317.03;;;2.48;81.45
75036;BME280;64247;51.540;5.854;2023-04-06T04:58:02;101313.25;;;2.49;81.88
75036;BME280;64247;51.540;5.854;2023-04-06T05:00:18;101310.56;;;2.49;82.22
75036;BME280;64247;51.540;5.854;2023-04-06T05:02:20;101320.22;;;2.50;81.96
75036;BME280;64247;51.540;5.854;2023-04-06T05:04:39;101317.28;;;2.52;82.35
75036;BME280;64247;51.540;5.854;2023-04-06T05:06:43;101310.56;;;2.55;82.55
75036;BME280;64247;51.540;5.854;2023-04-06T05:08:45;101315.63;;;2.56;82.08
75036;BME280;64247;51.540;5.854;2023-04-06T05:10:46;101317.25;;;2.57;82.28
75036;BME280;64247;51.540;5.854;2023-04-06T05:12:49;101308.91;;;2.59;81.57
75036;BME280;64247;51.540;5.854;2023-04-06T05:14:49;101309.75;;;2.59;81.91
75036;BME280;64247;51.540;5.854;2023-04-06T05:16:53;101306.00;;;2.60;81.43
75036;BME280;64247;51.540;5.854;2023-04-06T05:18:58;101310.25;;;2.61;81.62
75036;BME280;64247;51.540;5.854;2023-04-06T05:21:05;101305.94;;;2.65;82.05
75036;BME280;64247;51.540;5.854;2023-04-06T05:23:17;101307.56;;;2.66;81.63
75036;BME280;64247;51.540;5.854;2023-04-06T05:25:18;101310.25;;;2.66;81.86
75036;BME280;64247;51.540;5.854;2023-04-06T05:27:22;101308.88;;;2.69;81.80
75036;BME280;64247;51.540;5.854;2023-04-06T05:29:23;101306.44;;;2.73;81.51
75036;BME280;64247;51.540;5.854;2023-04-06T05:31:24;101304.03;;;2.76;81.23
75036;BME280;64247;51.540;5.854;2023-04-06T05:33:25;101311.53;;;2.79;81.08
75036;BME280;64247;51.540;5.854;2023-04-06T05:35:39;101311.19;;;2.86;81.26
75036;BME280;64247;51.540;5.854;2023-04-06T05:37:45;101311.16;;;2.91;80.78
75036;BME280;64247;51.540;5.854;2023-04-06T05:39:46;101309.25;;;2.97;80.27
75036;BME280;64247;51.540;5.854;2023-04-06T05:41:48;101308.44;;;3.01;80.03
75036;BME280;64247;51.540;5.854;2023-04-06T05:43:51;101299.03;;;3.04;80.33
75036;BME280;64247;51.540;5.854;2023-04-06T05:45:52;101302.47;;;3.10;80.12
75036;BME280;64247;51.540;5.854;2023-04-06T05:47:53;101298.97;;;3.14;79.81
75036;BME280;64247;51.540;5.854;2023-04-06T05:50:00;101303.50;;;3.19;79.30
75036;BME280;64247;51.540;5.854;2023-04-06T05:52:08;101306.94;;;3.25;79.49
75036;BME280;64247;51.540;5.854;2023-04-06T05:54:09;101311.47;;;3.29;78.77
75036;BME280;64247;51.540;5.854;2023-04-06T05:56:10;101310.63;;;3.34;79.32
75036;BME280;64247;51.540;5.854;2023-04-06T05:58:11;101304.94;;;3.41;78.71
75036;BME280;64247;51.540;5.854;2023-04-06T06:00:13;101301.13;;;3.47;78.07
75036;BME280;64247;51.540;5.854;2023-04-06T06:02:22;101297.31;;;3.53;77.39
75036;BME280;64247;51.540;5.854;2023-04-06T06:04:25;101298.91;;;3.59;77.38
75036;BME280;64247;51.540;5.854;2023-04-06T06:06:28;101295.88;;;3.66;76.82
75036;BME280;64247;51.540;5.854;2023-04-06T06:08:49;101303.00;;;3.76;76.59
75036;BME280;64247;51.540;5.854;2023-04-06T06:10:51;101298.94;;;3.84;76.23
75036;BME280;64247;51.540;5.854;2023-04-06T06:12:56;101299.09;;;3.92;76.17
75036;BME280;64247;51.540;5.854;2023-04-06T06:14:57;101297.94;;;4.04;76.01
75036;BME280;64247;51.540;5.854;2023-04-06T06:17:00;101303.16;;;4.14;74.86
75036;BME280;64247;51.540;5.854;2023-04-06T06:19:02;101293.41;;;4.23;75.02
75036;BME280;64247;51.540;5.854;2023-04-06T06:21:03;101299.75;;;4.33;74.08
75036;BME280;64247;51.540;5.854;2023-04-06T06:23:05;101297.50;;;4.40;73.32
75036;BME280;64247;51.540;5.854;2023-04-06T06:25:07;101288.03;;;4.48;72.68
75036;BME280;64247;51.540;5.854;2023-04-06T06:27:08;101291.44;;;4.53;71.77
75036;BME280;64247;51.540;5.854;2023-04-06T06:29:10;101288.63;;;4.64;72.26
75036;BME280;64247;51.540;5.854;2023-04-06T06:31:13;101285.81;;;4.74;72.44
75036;BME280;64247;51.540;5.854;2023-04-06T06:33:15;101290.75;;;4.86;71.33
75036;BME280;64247;51.540;5.854;2023-04-06T06:35:16;101293.28;;;4.96;71.46
75036;BME280;64247;51.540;5.854;2023-04-06T06:37:17;101288.28;;;5.09;70.65
75036;BME280;64247;51.540;5.854;2023-04-06T06:39:18;101294.88;;;5.16;70.60
75036;BME280;64247;51.540;5.854;2023-04-06T06:41:19;101289.13;;;5.23;70.36
75036;BME280;64247;51.540;5.854;2023-04-06T06:43:20;101295.50;;;5.27;70.52
75036;BME280;64247;51.540;5.854;2023-04-06T06:45:34;101296.44;;;5.36;70.25
75036;BME280;64247;51.540;5.854;2023-04-06T06:47:35;101288.78;;;5.44;70.13
75036;BME280;64247;51.540;5.854;2023-04-06T06:49:36;101291.00;;;5.55;69.51
75036;BME280;64247;51.540;5.854;2023-04-06T06:51:37;101291.44;;;5.63;68.96
75036;BME280;64247;51.540;5.854;2023-04-06T06:53:38;101283.97;;;5.74;68.80
75036;BME280;64247;51.540;5.854;2023-04-06T06:55:39;101290.25;;;5.83;68.23
75036;BME280;64247;51.540;5.854;2023-04-06T06:57:40;101291.47;;;5.91;68.12
75036;BME280;64247;51.540;5.854;2023-04-06T06:59:43;101292.69;;;5.98;68.30
75036;BME280;64247;51.540;5.854;2023-04-06T07:01:43;101287.72;;;6.06;67.43
75036;BME280;64247;51.540;5.854;2023-04-06T07:03:44;101285.72;;;6.11;67.68
75036;BME280;64247;51.540;5.854;2023-04-06T07:05:46;101288.53;;;6.20;67.37
75036;BME280;64247;51.540;5.854;2023-04-06T07:07:54;101283.84;;;6.26;66.18
75036;BME280;64247;51.540;5.854;2023-04-06T07:09:56;101289.44;;;6.29;65.97
75036;BME280;64247;51.540;5.854;2023-04-06T07:11:56;101288.22;;;6.36;67.15
75036;BME280;64247;51.540;5.854;2023-04-06T07:13:58;101281.91;;;6.40;65.88
75036;BME280;64247;51.540;5.854;2023-04-06T07:16:00;101288.81;;;6.46;66.00
75036;BME280;64247;51.540;5.854;2023-04-06T07:18:02;101287.91;;;6.51;65.35
75036;BME280;64247;51.540;5.854;2023-04-06T07:20:03;101285.91;;;6.57;65.42
75036;BME280;64247;51.540;5.854;2023-04-06T07:22:05;101284.19;;;6.61;65.36
75036;BME280;64247;51.540;5.854;2023-04-06T07:24:06;101285.47;;;6.63;65.08
75036;BME280;64247;51.540;5.854;2023-04-06T07:26:07;101283.78;;;6.68;65.86
75036;BME280;64247;51.540;5.854;2023-04-06T07:28:08;101275.75;;;6.76;66.31
75036;BME280;64247;51.540;5.854;2023-04-06T07:30:10;101281.06;;;6.81;65.41
75036;BME280;64247;51.540;5.854;2023-04-06T07:32:11;101275.84;;;6.85;65.36
75036;BME280;64247;51.540;5.854;2023-04-06T07:34:12;101279.19;;;6.91;65.15
75036;BME280;64247;51.540;5.854;2023-04-06T07:36:13;101271.00;;;6.96;65.23
75036;BME280;64247;51.540;5.854;2023-04-06T07:38:14;101275.00;;;6.99;65.41
75036;BME280;64247;51.540;5.854;2023-04-06T07:40:15;101278.38;;;7.04;65.37
75036;BME280;64247;51.540;5.854;2023-04-06T07:42:17;101278.25;;;7.09;64.59
75036;BME280;64247;51.540;5.854;2023-04-06T07:44:18;101275.13;;;7.16;65.44
75036;BME280;64247;51.540;5.854;2023-04-06T07:46:20;101268.97;;;7.24;65.15
75036;BME280;64247;51.540;5.854;2023-04-06T07:48:21;101272.34;;;7.30;64.14
75036;BME280;64247;51.540;5.854;2023-04-06T07:50:22;101270.81;;;7.38;63.37
75036;BME280;64247;51.540;5.854;2023-04-06T07:52:23;101265.78;;;7.45;63.57
75036;BME280;64247;51.540;5.854;2023-04-06T07:54:24;101269.44;;;7.49;63.53
75036;BME280;64247;51.540;5.854;2023-04-06T07:56:25;101262.81;;;7.55;63.43
75036;BME280;64247;51.540;5.854;2023-04-06T07:58:26;101259.06;;;7.65;63.85
75036;BME280;64247;51.540;5.854;2023-04-06T08:00:27;101265.09;;;7.71;62.86
75036;BME280;64247;51.540;5.854;2023-04-06T08:02:28;101261.00;;;7.73;62.19
75036;BME280;64247;51.540;5.854;2023-04-06T08:04:29;101261.38;;;7.81;62.50
75036;BME280;64247;51.540;5.854;2023-04-06T08:06:30;101277.94;;;7.88;61.91
75036;BME280;64247;51.540;5.854;2023-04-06T08:08:31;101269.06;;;7.96;62.17
75036;BME280;64247;51.540;5.854;2023-04-06T08:10:32;101265.75;;;8.08;61.95
75036;BME280;64247;51.540;5.854;2023-04-06T08:12:34;101268.00;;;8.15;62.08
75036;BME280;64247;51.540;5.854;2023-04-06T08:14:35;101267.72;;;8.25;62.56
75036;BME280;64247;51.540;5.854;2023-04-06T08:16:36;101277.59;;;8.38;61.77
75036;BME280;64247;51.540;5.854;2023-04-06T08:18:37;101271.94;;;8.49;61.44
75036;BME280;64247;51.540;5.854;2023-04-06T08:20:39;101268.75;;;8.55;59.02
75036;BME280;64247;51.540;5.854;2023-04-06T08:22:40;101273.03;;;8.48;58.66
75036;BME280;64247;51.540;5.854;2023-04-06T08:24:41;101270.13;;;8.44;58.62
75036;BME280;64247;51.540;5.854;2023-04-06T08:26:42;101275.91;;;8.51;59.64
75036;BME280;64247;51.540;5.854;2023-04-06T08:28:43;101268.28;;;8.62;58.56
75036;BME280;64247;51.540;5.854;2023-04-06T08:30:44;101280.22;;;8.61;58.50
75036;BME280;64247;51.540;5.854;2023-04-06T08:32:45;101274.34;;;8.68;58.17
75036;BME280;64247;51.540;5.854;2023-04-06T08:34:46;101275.78;;;8.74;58.78
75036;BME280;64247;51.540;5.854;2023-04-06T08:36:47;101272.44;;;8.77;58.27
75036;BME280;64247;51.540;5.854;2023-04-06T08:38:49;101271.47;;;8.82;58.56
75036;BME280;64247;51.540;5.854;2023-04-06T08:40:50;101275.16;;;8.86;59.14
75036;BME280;64247;51.540;5.854;2023-04-06T08:42:54;101273.22;;;8.86;58.87
75036;BME280;64247;51.540;5.854;2023-04-06T08:44:56;101271.34;;;8.87;58.85
75036;BME280;64247;51.540;5.854;2023-04-06T08:46:59;101275.78;;;8.83;59.43
75036;BME280;64247;51.540;5.854;2023-04-06T08:49:02;101274.34;;;8.94;59.29
75036;BME280;64247;51.540;5.854;2023-04-06T08:51:04;101272.28;;;9.09;59.00
75036;BME280;64247;51.540;5.854;2023-04-06T08:53:06;101273.84;;;9.18;58.86
75036;BME280;64247;51.540;5.854;2023-04-06T08:55:08;101271.94;;;9.10;57.77
75036;BME280;64247;51.540;5.854;2023-04-06T08:57:09;101272.91;;;9.14;58.12
75036;BME280;64247;51.540;5.854;2023-04-06T08:59:11;101268.59;;;9.13;57.75
75036;BME280;64247;51.540;5.854;2023-04-06T09:01:13;101276.41;;;9.15;58.74
75036;BME280;64247;51.540;5.854;2023-04-06T09:03:17;101271.97;;;9.19;57.66
75036;BME280;64247;51.540;5.854;2023-04-06T09:05:20;101275.28;;;9.16;57.38
75036;BME280;64247;51.540;5.854;2023-04-06T09:07:24;101274.00;;;9.22;58.75
75036;BME280;64247;51.540;5.854;2023-04-06T09:09:25;101274.34;;;9.21;58.02
75036;BME280;64247;51.540;5.854;2023-04-06T09:11:26;101280.53;;;9.30;57.66
75036;BME280;64247;51.540;5.854;2023-04-06T09:13:27;101273.97;;;9.40;57.86
75036;BME280;64247;51.540;5.854;2023-04-06T09:15:28;101288.63;;;9.47;58.64
75036;BME280;64247;51.540;5.854;2023-04-06T09:17:31;101276.03;;;9.52;58.05
75036;BME280;64247;51.540;5.854;2023-04-06T09:19:33;101274.09;;;9.61;57.53
75036;BME280;64247;51.540;5.854;2023-04-06T09:21:45;101277.13;;;9.59;57.17
75036;BME280;64247;51.540;5.854;2023-04-06T09:23:46;101274.63;;;9.45;57.78
75036;BME280;64247;51.540;5.854;2023-04-06T09:25:48;101278.06;;;9.55;58.75
75036;BME280;64247;51.540;5.854;2023-04-06T09:28:02;101280.28;;;9.70;58.44
75036;BME280;64247;51.540;5.854;2023-04-06T09:30:24;101275.75;;;9.83;57.64
75036;BME280;64247;51.540;5.854;2023-04-06T09:32:25;101278.94;;;9.85;56.93
75036;BME280;64247;51.540;5.854;2023-04-06T09:34:26;101280.56;;;9.77;57.18
75036;BME280;64247;51.540;5.854;2023-04-06T09:36:34;101283.97;;;9.57;58.14
75036;BME280;64247;51.540;5.854;2023-04-06T09:38:51;101284.66;;;9.54;58.76
75036;BME280;64247;51.540;5.854;2023-04-06T09:40:56;101283.66;;;9.58;57.89
75036;BME280;64247;51.540;5.854;2023-04-06T09:42:57;101272.34;;;9.56;58.96
75036;BME280;64247;51.540;5.854;2023-04-06T09:45:00;101281.41;;;9.60;58.52
75036;BME280;64247;51.540;5.854;2023-04-06T09:47:06;101276.81;;;9.52;59.89
75036;BME280;64247;51.540;5.854;2023-04-06T09:49:09;101281.59;;;9.55;59.57
75036;BME280;64247;51.540;5.854;2023-04-06T09:51:12;101279.97;;;9.72;58.82
75036;BME280;64247;51.540;5.854;2023-04-06T09:53:18;101283.13;;;9.82;59.09
75036;BME280;64247;51.540;5.854;2023-04-06T09:55:28;101284.94;;;10.00;58.51
75036;BME280;64247;51.540;5.854;2023-04-06T09:57:55;101277.66;;;10.21;57.50
75036;BME280;64247;51.540;5.854;2023-04-06T10:00:25;101266.75;;;10.39;57.26
75036;BME280;64247;51.540;5.854;2023-04-06T10:02:58;101271.47;;;10.21;56.65
75036;BME280;64247;51.540;5.854;2023-04-06T10:05:33;101270.63;;;9.99;57.05
75036;BME280;64247;51.540;5.854;2023-04-06T10:08:06;101276.47;;;10.10;57.63
75036;BME280;64247;51.540;5.854;2023-04-06T10:10:09;101279.84;;;10.37;57.90
75036;BME280;64247;51.540;5.854;2023-04-06T10:12:12;101288.50;;;10.60;57.74
75036;BME280;64247;51.540;5.854;2023-04-06T10:14:15;101279.91;;;10.79;56.68
75036;BME280;64247;51.540;5.854;2023-04-06T10:16:17;101280.69;;;11.01;55.95
75036;BME280;64247;51.540;5.854;2023-04-06T10:18:18;101284.25;;;11.14;55.87
75036;BME280;64247;51.540;5.854;2023-04-06T10:23:19;101277.81;;;11.18;56.05
75036;BME280;64247;51.540;5.854;2023-04-06T10:26:01;101284.41;;;11.30;55.71
75036;BME280;64247;51.540;5.854;2023-04-06T10:28:08;101277.09;;;11.43;55.42
75036;BME280;64247;51.540;5.854;2023-04-06T10:30:15;101274.59;;;11.37;56.24
75036;BME280;64247;51.540;5.854;2023-04-06T10:32:17;101283.41;;;11.34;57.49
75036;BME280;64247;51.540;5.854;2023-04-06T10:34:18;101284.81;;;11.19;56.47
75036;BME280;64247;51.540;5.854;2023-04-06T10:36:27;101282.34;;;11.27;57.70
75036;BME280;64247;51.540;5.854;2023-04-06T10:38:39;101275.25;;;11.34;56.37
75036;BME280;64247;51.540;5.854;2023-04-06T10:40:42;101270.66;;;11.14;57.00
75036;BME280;64247;51.540;5.854;2023-04-06T10:42:48;101278.69;;;11.10;58.58
75036;BME280;64247;51.540;5.854;2023-04-06T10:44:49;101275.03;;;11.06;58.58
75036;BME280;64247;51.540;5.854;2023-04-06T10:46:58;101275.59;;;10.99;57.86
75036;BME280;64247;51.540;5.854;2023-04-06T10:49:12;101288.09;;;10.70;60.07
75036;BME280;64247;51.540;5.854;2023-04-06T10:51:17;101279.03;;;10.66;61.57
75036;BME280;64247;51.540;5.854;2023-04-06T10:53:25;101281.19;;;10.52;61.02
75036;BME280;64247;51.540;5.854;2023-04-06T10:55:28;101283.91;;;10.52;61.45
75036;BME280;64247;51.540;5.854;2023-04-06T10:57:30;101280.13;;;10.44;61.82
75036;BME280;64247;51.540;5.854;2023-04-06T10:59:34;101281.56;;;10.41;63.86